sensor_id;sensor_type;location;lat;lon;timestamp;pressure;altitude;pressure_sealevel;temperature;humidity
6859;BME280;3468;42.824;23.240;2023-05-21T00:01:53;68516.09;;;12.06;100.00
6859;BME280;3468;42.824;23.240;2023-05-21T00:04:20;68523.72;;;12.06;100.00
6859;BME280;3468;42.824;23.240;2023-05-21T00:06:46;68525.72;;;11.95;100.00
6859;BME280;3468;42.824;23.240;2023-05-21T00:09:13;68502.53;;;11.92;100.00
6859;BME280;3468;42.824;23.240;2023-05-21T00:11:40;68517.88;;;11.86;100.00
6859;BME280;3468;42.824;23.240;2023-05-21T00:14:08;68523.22;;;11.84;100.00
6859;BME280;3468;42.824;23.240;2023-05-21T00:16:34;68519.06;;;11.76;100.00
6859;BME280;3468;42.824;23.240;2023-05-21T00:19:01;68497.88;;;11.73;100.00
6859;BME280;3468;42.824;23.240;2023-05-21T00:21:28;68482.41;;;11.75;100.00
6859;BME280;3468;42.824;23.240;2023-05-21T00:23:56;68501.78;;;11.83;100.00
6859;BME280;3468;42.824;23.240;2023-05-21T00:26:23;68521.69;;;11.91;100.00
6859;BME280;3468;42.824;23.240;2023-05-21T00:28:50;68493.53;;;11.93;100.00
6859;BME280;3468;42.824;23.240;2023-05-21T00:31:18;68441.44;;;11.46;100.00
6859;BME280;3468;42.824;23.240;2023-05-21T00:33:44;68494.34;;;11.92;100.00
6859;BME280;3468;42.824;23.240;2023-05-21T00:36:11;68533.34;;;11.95;100.00
6859;BME280;3468;42.824;23.240;2023-05-21T00:38:38;68534.59;;;11.89;100.00
6859;BME280;3468;42.824;23.240;2023-05-21T00:41:08;68475.75;;;11.67;100.00
6859;BME280;3468;42.824;23.240;2023-05-21T00:43:35;68512.13;;;11.92;100.00
6859;BME280;3468;42.824;23.240;2023-05-21T00:46:05;68499.44;;;11.81;100.00
6859;BME280;3468;42.824;23.240;2023-05-21T00:48:33;68523.22;;;11.84;100.00
6859;BME280;3468;42.824;23.240;2023-05-21T00:51:00;68484.09;;;11.87;100.00
6859;BME280;3468;42.824;23.240;2023-05-21T00:53:27;68509.03;;;11.80;100.00
6859;BME280;3468;42.824;23.240;2023-05-21T00:55:54;68482.50;;;11.79;100.00
6859;BME280;3468;42.824;23.240;2023-05-21T00:58:21;68510.06;;;11.77;100.00
6859;BME280;3468;42.824;23.240;2023-05-21T01:00:48;68475.97;;;11.65;100.00
6859;BME280;3468;42.824;23.240;2023-05-21T01:03:15;68499.25;;;11.72;100.00
6859;BME280;3468;42.824;23.240;2023-05-21T01:05:44;68476.66;;;11.70;100.00
6859;BME280;3468;42.824;23.240;2023-05-21T01:08:11;68464.44;;;11.66;100.00
6859;BME280;3468;42.824;23.240;2023-05-21T01:10:39;68357.34;;;11.28;100.00
6859;BME280;3468;42.824;23.240;2023-05-21T01:13:06;68508.28;;;11.60;100.00
6859;BME280;3468;42.824;23.240;2023-05-21T01:15:33;68400.53;;;10.96;100.00
6859;BME280;3468;42.824;23.240;2023-05-21T01:18:02;68396.28;;;10.94;100.00
6859;BME280;3468;42.824;23.240;2023-05-21T01:20:30;68461.56;;;11.63;100.00
6859;BME280;3468;42.824;23.240;2023-05-21T01:22:58;68407.94;;;10.87;100.00
6859;BME280;3468;42.824;23.240;2023-05-21T01:25:25;68526.25;;;11.69;100.00
6859;BME280;3468;42.824;23.240;2023-05-21T01:27:52;68503.41;;;11.69;100.00
6859;BME280;3468;42.824;23.240;2023-05-21T01:30:20;68520.03;;;11.68;100.00
6859;BME280;3468;42.824;23.240;2023-05-21T01:32:54;68490.16;;;11.68;100.00
6859;BME280;3468;42.824;23.240;2023-05-21T01:35:25;68481.84;;;11.74;100.00
6859;BME280;3468;42.824;23.240;2023-05-21T01:37:58;68388.63;;;11.53;100.00
6859;BME280;3468;42.824;23.240;2023-05-21T01:40:35;68529.91;;;11.81;100.00
6859;BME280;3468;42.824;23.240;2023-05-21T01:43:06;68519.53;;;11.83;100.00
6859;BME280;3468;42.824;23.240;2023-05-21T01:45:35;68486.53;;;11.83;100.00
6859;BME280;3468;42.824;23.240;2023-05-21T01:48:06;68466.84;;;11.72;100.00
6859;BME280;3468;42.824;23.240;2023-05-21T01:50:34;68511.38;;;11.97;100.00
6859;BME280;3468;42.824;23.240;2023-05-21T01:53:01;68537.47;;;12.02;100.00
6859;BME280;3468;42.824;23.240;2023-05-21T01:55:31;68516.19;;;12.10;100.00
6859;BME280;3468;42.824;23.240;2023-05-21T01:57:58;68522.47;;;12.00;100.00
6859;BME280;3468;42.824;23.240;2023-05-21T02:00:25;68506.47;;;12.17;100.00
6859;BME280;3468;42.824;23.240;2023-05-21T02:02:53;68546.38;;;12.23;100.00
6859;BME280;3468;42.824;23.240;2023-05-21T02:05:20;68517.59;;;12.09;100.00
6859;BME280;3468;42.824;23.240;2023-05-21T02:07:49;68515.34;;;12.23;100.00
6859;BME280;3468;42.824;23.240;2023-05-21T02:10:16;68426.47;;;11.70;100.00
6859;BME280;3468;42.824;23.240;2023-05-21T02:12:44;68545.63;;;12.14;100.00
6859;BME280;3468;42.824;23.240;2023-05-21T02:15:11;68520.13;;;12.09;100.00
6859;BME280;3468;42.824;23.240;2023-05-21T02:17:42;68555.22;;;12.02;100.00
6859;BME280;3468;42.824;23.240;2023-05-21T02:20:09;68544.41;;;11.97;100.00
6859;BME280;3468;42.824;23.240;2023-05-21T02:22:37;68511.44;;;11.87;100.00
6859;BME280;3468;42.824;23.240;2023-05-21T02:25:05;68486.88;;;11.85;100.00
6859;BME280;3468;42.824;23.240;2023-05-21T02:27:33;68476.03;;;11.80;100.00
6859;BME280;3468;42.824;23.240;2023-05-21T02:30:03;68478.00;;;11.80;100.00
6859;BME280;3468;42.824;23.240;2023-05-21T02:32:31;68499.25;;;11.72;100.00
6859;BME280;3468;42.824;23.240;2023-05-21T02:34:58;68474.94;;;11.68;100.00
6859;BME280;3468;42.824;23.240;2023-05-21T02:37:25;68491.56;;;11.56;100.00
6859;BME280;3468;42.824;23.240;2023-05-21T02:39:52;68499.88;;;11.40;100.00
6859;BME280;3468;42.824;23.240;2023-05-21T02:42:20;68432.47;;;11.36;100.00
6859;BME280;3468;42.824;23.240;2023-05-21T02:44:47;68468.66;;;11.41;100.00
6859;BME280;3468;42.824;23.240;2023-05-21T02:47:16;68438.22;;;11.41;100.00
6859;BME280;3468;42.824;23.240;2023-05-21T02:49:42;68459.44;;;11.33;100.00
6859;BME280;3468;42.824;23.240;2023-05-21T02:52:09;68413.09;;;11.39;100.00
6859;BME280;3468;42.824;23.240;2023-05-21T02:54:36;68481.78;;;11.48;100.00
6859;BME280;3468;42.824;23.240;2023-05-21T02:57:03;68421.16;;;11.35;100.00
6859;BME280;3468;42.824;23.240;2023-05-21T02:59:30;68499.31;;;11.50;100.00
6859;BME280;3468;42.824;23.240;2023-05-21T03:01:56;68478.56;;;11.54;100.00
6859;BME280;3468;42.824;23.240;2023-05-21T03:04:24;68478.56;;;11.54;100.00
6859;BME280;3468;42.824;23.240;2023-05-21T03:06:52;68762.31;;;11.02;100.00
6859;BME280;3468;42.824;23.240;2023-05-21T03:09:19;68473.47;;;11.54;100.00
6859;BME280;3468;42.824;23.240;2023-05-21T03:11:47;68487.44;;;11.49;100.00
6859;BME280;3468;42.824;23.240;2023-05-21T03:14:13;68447.91;;;11.34;100.00
6859;BME280;3468;42.824;23.240;2023-05-21T03:16:40;68516.38;;;11.56;100.00
6859;BME280;3468;42.824;23.240;2023-05-21T03:19:08;68484.78;;;11.44;100.00
6859;BME280;3468;42.824;23.240;2023-05-21T03:21:36;68502.88;;;11.57;100.00
6859;BME280;3468;42.824;23.240;2023-05-21T03:24:04;68468.38;;;11.65;100.00
6859;BME280;3468;42.824;23.240;2023-05-21T03:26:31;68477.59;;;11.62;100.00
6859;BME280;3468;42.824;23.240;2023-05-21T03:28:58;68479.13;;;11.55;100.00
6859;BME280;3468;42.824;23.240;2023-05-21T03:31:26;68487.38;;;11.70;100.00
6859;BME280;3468;42.824;23.240;2023-05-21T03:33:52;68501.25;;;11.60;100.00
6859;BME280;3468;42.824;23.240;2023-05-21T03:36:19;68449.22;;;11.29;100.00
6859;BME280;3468;42.824;23.240;2023-05-21T03:38:47;68517.50;;;11.57;100.00
6859;BME280;3468;42.824;23.240;2023-05-21T03:41:14;68462.75;;;11.43;100.00
6859;BME280;3468;42.824;23.240;2023-05-21T03:43:41;68476.47;;;11.61;100.00
6859;BME280;3468;42.824;23.240;2023-05-21T03:46:07;68492.69;;;11.68;100.00
6859;BME280;3468;42.824;23.240;2023-05-21T03:48:34;68511.47;;;11.76;100.00
6859;BME280;3468;42.824;23.240;2023-05-21T03:51:01;68471.81;;;11.68;100.00
6859;BME280;3468;42.824;23.240;2023-05-21T03:53:28;68528.84;;;11.84;100.00
6859;BME280;3468;42.824;23.240;2023-05-21T03:55:56;68502.22;;;11.79;100.00
6859;BME280;3468;42.824;23.240;2023-05-21T03:58:23;68526.28;;;11.95;100.00
6859;BME280;3468;42.824;23.240;2023-05-21T04:00:51;68553.84;;;12.03;100.00
6859;BME280;3468;42.824;23.240;2023-05-21T04:03:17;68521.16;;;12.17;100.00
6859;BME280;3468;42.824;23.240;2023-05-21T04:05:44;68550.44;;;12.27;100.00
6859;BME280;3468;42.824;23.240;2023-05-21T04:08:11;68547.09;;;12.17;100.00
6859;BME280;3468;42.824;23.240;2023-05-21T04:10:37;68595.44;;;12.33;100.00
6859;BME280;3468;42.824;23.240;2023-05-21T04:13:05;68489.88;;;12.07;100.00
6859;BME280;3468;42.824;23.240;2023-05-21T04:15:32;68594.91;;;12.47;100.00
6859;BME280;3468;42.824;23.240;2023-05-21T04:17:59;68583.22;;;12.55;100.00
6859;BME280;3468;42.824;23.240;2023-05-21T04:20:26;68559.97;;;12.63;100.00
6859;BME280;3468;42.824;23.240;2023-05-21T04:22:53;68605.09;;;12.74;100.00
6859;BME280;3468;42.824;23.240;2023-05-21T04:25:19;68583.00;;;12.83;100.00
6859;BME280;3468;42.824;23.240;2023-05-21T04:27:47;68456.00;;;12.46;100.00
6859;BME280;3468;42.824;23.240;2023-05-21T04:30:15;68606.66;;;12.92;100.00
6859;BME280;3468;42.824;23.240;2023-05-21T04:32:44;68628.09;;;13.04;100.00
6859;BME280;3468;42.824;23.240;2023-05-21T04:35:12;68572.34;;;12.61;100.00
6859;BME280;3468;42.824;23.240;2023-05-21T04:37:40;68632.22;;;13.12;100.00
6859;BME280;3468;42.824;23.240;2023-05-21T04:40:10;68634.72;;;13.23;100.00
6859;BME280;3468;42.824;23.240;2023-05-21T04:42:39;68570.91;;;12.46;100.00
6859;BME280;3468;42.824;23.240;2023-05-21T04:45:06;68578.19;;;13.38;100.00
6859;BME280;3468;42.824;23.240;2023-05-21T04:47:34;68686.84;;;13.55;100.00
6859;BME280;3468;42.824;23.240;2023-05-21T04:50:02;68650.72;;;13.17;100.00
6859;BME280;3468;42.824;23.240;2023-05-21T04:52:29;68611.97;;;13.17;100.00
6859;BME280;3468;42.824;23.240;2023-05-21T04:54:56;68669.63;;;13.70;100.00
6859;BME280;3468;42.824;23.240;2023-05-21T04:57:23;68682.22;;;13.77;100.00
6859;BME280;3468;42.824;23.240;2023-05-21T04:59:49;68718.38;;;13.88;100.00
6859;BME280;3468;42.824;23.240;2023-05-21T05:02:16;68737.31;;;14.00;100.00
6859;BME280;3468;42.824;23.240;2023-05-21T05:04:45;68721.09;;;14.08;100.00
6859;BME280;3468;42.824;23.240;2023-05-21T05:07:11;68734.66;;;14.22;100.00
6859;BME280;3468;42.824;23.240;2023-05-21T05:09:39;68761.50;;;14.32;100.00
6859;BME280;3468;42.824;23.240;2023-05-21T05:12:06;68767.44;;;14.46;100.00
6859;BME280;3468;42.824;23.240;2023-05-21T05:14:33;68698.91;;;14.17;100.00
6859;BME280;3468;42.824;23.240;2023-05-21T05:17:00;68785.06;;;14.78;100.00
6859;BME280;3468;42.824;23.240;2023-05-21T05:19:27;68811.81;;;14.84;100.00
6859;BME280;3468;42.824;23.240;2023-05-21T05:21:55;68797.16;;;14.88;100.00
6859;BME280;3468;42.824;23.240;2023-05-21T05:24:22;68824.34;;;15.01;100.00
6859;BME280;3468;42.824;23.240;2023-05-21T05:26:48;68855.44;;;15.23;100.00
6859;BME280;3468;42.824;23.240;2023-05-21T05:29:15;68836.00;;;15.30;100.00
6859;BME280;3468;42.824;23.240;2023-05-21T05:31:42;68891.78;;;15.70;100.00
6859;BME280;3468;42.824;23.240;2023-05-21T05:34:08;68935.13;;;15.96;100.00
6859;BME280;3468;42.824;23.240;2023-05-21T05:36:35;68952.28;;;16.17;100.00
6859;BME280;3468;42.824;23.240;2023-05-21T05:39:04;68975.25;;;16.43;100.00
6859;BME280;3468;42.824;23.240;2023-05-21T05:41:31;69265.19;;;16.35;100.00
6859;BME280;3468;42.824;23.240;2023-05-21T05:43:58;68986.41;;;16.81;100.00
6859;BME280;3468;42.824;23.240;2023-05-21T05:46:25;69004.81;;;16.93;100.00
6859;BME280;3468;42.824;23.240;2023-05-21T05:48:52;69030.97;;;17.08;100.00
6859;BME280;3468;42.824;23.240;2023-05-21T05:51:18;69024.84;;;17.32;100.00
6859;BME280;3468;42.824;23.240;2023-05-21T05:53:45;69097.63;;;17.59;100.00
6859;BME280;3468;42.824;23.240;2023-05-21T05:56:13;69096.41;;;17.88;100.00
6859;BME280;3468;42.824;23.240;2023-05-21T05:58:41;69131.00;;;18.14;100.00
6859;BME280;3468;42.824;23.240;2023-05-21T06:01:08;69200.47;;;18.42;100.00
6859;BME280;3468;42.824;23.240;2023-05-21T06:03:34;69175.56;;;18.71;100.00
6859;BME280;3468;42.824;23.240;2023-05-21T06:06:01;69256.38;;;19.12;98.79
6859;BME280;3468;42.824;23.240;2023-05-21T06:08:28;69268.91;;;19.49;94.96
6859;BME280;3468;42.824;23.240;2023-05-21T06:10:54;69315.06;;;19.95;97.36
6859;BME280;3468;42.824;23.240;2023-05-21T06:13:22;69378.84;;;20.38;92.42
6859;BME280;3468;42.824;23.240;2023-05-21T06:15:49;69360.50;;;20.75;89.40
6859;BME280;3468;42.824;23.240;2023-05-21T06:18:16;69468.09;;;21.14;90.54
6859;BME280;3468;42.824;23.240;2023-05-21T06:20:43;69393.13;;;21.21;90.06
6859;BME280;3468;42.824;23.240;2023-05-21T06:23:09;69501.72;;;21.43;93.55
6859;BME280;3468;42.824;23.240;2023-05-21T06:25:36;69503.16;;;21.22;90.95
6859;BME280;3468;42.824;23.240;2023-05-21T06:28:04;69393.66;;;20.53;90.66
6859;BME280;3468;42.824;23.240;2023-05-21T06:30:33;69414.63;;;20.60;89.97
6859;BME280;3468;42.824;23.240;2023-05-21T06:32:59;69333.22;;;20.48;91.61
6859;BME280;3468;42.824;23.240;2023-05-21T06:35:26;69361.22;;;20.45;95.54
6859;BME280;3468;42.824;23.240;2023-05-21T06:37:53;69355.50;;;20.25;97.50
6859;BME280;3468;42.824;23.240;2023-05-21T06:40:22;69337.94;;;19.97;99.06
6859;BME280;3468;42.824;23.240;2023-05-21T06:42:49;69334.72;;;19.92;92.83
6859;BME280;3468;42.824;23.240;2023-05-21T06:45:16;69330.81;;;19.97;91.71
6859;BME280;3468;42.824;23.240;2023-05-21T06:47:44;69349.13;;;20.00;92.57
6859;BME280;3468;42.824;23.240;2023-05-21T06:50:11;69227.41;;;19.42;89.30
6859;BME280;3468;42.824;23.240;2023-05-21T06:52:38;69340.91;;;19.84;88.57
6859;BME280;3468;42.824;23.240;2023-05-21T06:55:05;69319.41;;;20.01;91.94
6859;BME280;3468;42.824;23.240;2023-05-21T06:57:32;69372.41;;;20.29;87.10
6859;BME280;3468;42.824;23.240;2023-05-21T06:59:59;69373.66;;;20.34;86.04
6859;BME280;3468;42.824;23.240;2023-05-21T07:02:26;69391.91;;;20.32;85.96
6859;BME280;3468;42.824;23.240;2023-05-21T07:04:54;69393.00;;;20.48;82.51
6859;BME280;3468;42.824;23.240;2023-05-21T07:07:21;69371.25;;;20.67;86.17
6859;BME280;3468;42.824;23.240;2023-05-21T07:28:17;69358.78;;;20.15;71.03
6859;BME280;3468;42.824;23.240;2023-05-21T07:30:44;69394.81;;;20.34;69.62
6859;BME280;3468;42.824;23.240;2023-05-21T07:33:11;69379.19;;;20.41;67.00
6859;BME280;3468;42.824;23.240;2023-05-21T07:35:38;69421.66;;;20.51;67.74
6859;BME280;3468;42.824;23.240;2023-05-21T07:38:05;69389.34;;;20.52;71.37
6859;BME280;3468;42.824;23.240;2023-05-21T07:40:31;69262.13;;;20.35;67.34
6859;BME280;3468;42.824;23.240;2023-05-21T07:42:58;69366.06;;;20.43;67.58
6859;BME280;3468;42.824;23.240;2023-05-21T07:45:26;69368.50;;;20.34;67.86
6859;BME280;3468;42.824;23.240;2023-05-21T07:47:53;69338.69;;;19.71;67.10
6859;BME280;3468;42.824;23.240;2023-05-21T07:50:20;69372.75;;;20.31;68.24
6859;BME280;3468;42.824;23.240;2023-05-21T07:52:46;69378.09;;;20.25;67.81
6859;BME280;3468;42.824;23.240;2023-05-21T07:55:13;69381.31;;;20.49;65.00
6859;BME280;3468;42.824;23.240;2023-05-21T07:57:40;69355.19;;;20.23;66.46
6859;BME280;3468;42.824;23.240;2023-05-21T08:00:07;69444.78;;;20.86;61.82
6859;BME280;3468;42.824;23.240;2023-05-21T08:02:36;69465.09;;;21.03;61.46
6859;BME280;3468;42.824;23.240;2023-05-21T08:05:04;69482.66;;;21.12;62.51
6859;BME280;3468;42.824;23.240;2023-05-21T08:07:31;69438.78;;;21.07;60.94
6859;BME280;3468;42.824;23.240;2023-05-21T08:09:58;69466.69;;;20.96;60.95
6859;BME280;3468;42.824;23.240;2023-05-21T08:12:25;69406.16;;;20.66;60.47
6859;BME280;3468;42.824;23.240;2023-05-21T08:14:51;69310.94;;;20.07;59.47
6859;BME280;3468;42.824;23.240;2023-05-21T08:17:18;69357.63;;;20.33;62.62
6859;BME280;3468;42.824;23.240;2023-05-21T08:19:48;69346.63;;;20.24;60.50
6859;BME280;3468;42.824;23.240;2023-05-21T08:22:15;69382.06;;;20.43;61.92
6859;BME280;3468;42.824;23.240;2023-05-21T08:24:42;69391.59;;;20.49;61.63
6859;BME280;3468;42.824;23.240;2023-05-21T08:27:09;69357.38;;;20.35;60.63
6859;BME280;3468;42.824;23.240;2023-05-21T08:29:35;69394.94;;;20.43;59.61
6859;BME280;3468;42.824;23.240;2023-05-21T08:32:03;69367.78;;;20.44;60.13
6859;BME280;3468;42.824;23.240;2023-05-21T08:34:29;69423.53;;;20.61;59.46
6859;BME280;3468;42.824;23.240;2023-05-21T08:36:58;69428.25;;;20.70;59.55
6859;BME280;3468;42.824;23.240;2023-05-21T08:39:24;69463.84;;;20.98;58.11
6859;BME280;3468;42.824;23.240;2023-05-21T08:41:56;69431.44;;;21.14;57.48
6859;BME280;3468;42.824;23.240;2023-05-21T08:44:26;69494.84;;;21.22;56.34
6859;BME280;3468;42.824;23.240;2023-05-21T08:46:56;69506.94;;;21.48;56.71
6859;BME280;3468;42.824;23.240;2023-05-21T08:49:25;69524.19;;;21.98;56.24
6859;BME280;3468;42.824;23.240;2023-05-21T08:51:57;69596.94;;;22.33;54.33
6859;BME280;3468;42.824;23.240;2023-05-21T08:54:25;69537.72;;;22.22;53.63
6859;BME280;3468;42.824;23.240;2023-05-21T08:56:52;69707.47;;;21.98;56.18
6859;BME280;3468;42.824;23.240;2023-05-21T08:59:20;69589.53;;;22.36;54.65
6859;BME280;3468;42.824;23.240;2023-05-21T09:01:48;69614.63;;;22.46;54.55
6859;BME280;3468;42.824;23.240;2023-05-21T09:04:16;69553.84;;;22.27;54.50
6859;BME280;3468;42.824;23.240;2023-05-21T09:06:43;69540.47;;;21.92;55.56
6859;BME280;3468;42.824;23.240;2023-05-21T09:09:16;69653.94;;;22.90;54.08
6859;BME280;3468;42.824;23.240;2023-05-21T09:11:46;69614.28;;;23.16;51.44
6859;BME280;3468;42.824;23.240;2023-05-21T09:14:14;69717.41;;;23.38;48.62
6859;BME280;3468;42.824;23.240;2023-05-21T09:16:41;69695.41;;;22.99;46.08
6859;BME280;3468;42.824;23.240;2023-05-21T09:19:07;69660.84;;;22.92;47.04
6859;BME280;3468;42.824;23.240;2023-05-21T09:21:34;69635.25;;;22.66;45.61
6859;BME280;3468;42.824;23.240;2023-05-21T09:24:01;69649.97;;;22.72;48.48
6859;BME280;3468;42.824;23.240;2023-05-21T09:26:29;69669.06;;;22.83;47.74
6859;BME280;3468;42.824;23.240;2023-05-21T09:28:56;69601.28;;;22.59;47.21
6859;BME280;3468;42.824;23.240;2023-05-21T09:31:23;69641.03;;;22.71;46.66
6859;BME280;3468;42.824;23.240;2023-05-21T09:33:51;69659.38;;;22.69;49.51
6859;BME280;3468;42.824;23.240;2023-05-21T09:36:20;69601.13;;;22.45;46.82
6859;BME280;3468;42.824;23.240;2023-05-21T09:38:47;69657.94;;;22.89;48.34
6859;BME280;3468;42.824;23.240;2023-05-21T09:41:14;69639.59;;;22.91;47.63
6859;BME280;3468;42.824;23.240;2023-05-21T09:43:42;69596.06;;;22.30;45.44
6859;BME280;3468;42.824;23.240;2023-05-21T09:46:09;69670.72;;;22.81;46.07
6859;BME280;3468;42.824;23.240;2023-05-21T09:48:37;69699.75;;;23.25;45.63
6859;BME280;3468;42.824;23.240;2023-05-21T09:51:12;69684.81;;;23.54;45.59
6859;BME280;3468;42.824;23.240;2023-05-21T09:53:49;69680.31;;;23.11;44.47
6859;BME280;3468;42.824;23.240;2023-05-21T09:56:19;69649.13;;;22.73;47.80
6859;BME280;3468;42.824;23.240;2023-05-21T09:58:50;69707.50;;;23.25;46.20
6859;BME280;3468;42.824;23.240;2023-05-21T10:01:19;69629.34;;;22.76;46.75
6859;BME280;3468;42.824;23.240;2023-05-21T10:03:49;69533.63;;;21.95;48.18
6859;BME280;3468;42.824;23.240;2023-05-21T10:06:18;69532.19;;;21.96;52.44
6859;BME280;3468;42.824;23.240;2023-05-21T10:08:47;69595.97;;;22.01;51.50
6859;BME280;3468;42.824;23.240;2023-05-21T10:11:18;69675.47;;;23.13;50.17
6859;BME280;3468;42.824;23.240;2023-05-21T10:13:51;69715.72;;;23.41;47.45
6859;BME280;3468;42.824;23.240;2023-05-21T10:16:21;69708.44;;;23.32;49.38
6859;BME280;3468;42.824;23.240;2023-05-21T10:18:48;69739.19;;;23.59;51.32
6859;BME280;3468;42.824;23.240;2023-05-21T10:21:18;69701.53;;;23.60;49.39
6859;BME280;3468;42.824;23.240;2023-05-21T10:23:47;69796.91;;;23.97;47.24
6859;BME280;3468;42.824;23.240;2023-05-21T10:26:14;69813.00;;;23.97;46.31
6859;BME280;3468;42.824;23.240;2023-05-21T10:28:42;69844.00;;;24.65;46.64
6859;BME280;3468;42.824;23.240;2023-05-21T10:31:11;69850.81;;;24.53;42.18
6859;BME280;3468;42.824;23.240;2023-05-21T10:33:37;69914.66;;;24.99;43.62
6859;BME280;3468;42.824;23.240;2023-05-21T10:36:06;69852.41;;;24.42;42.19
6859;BME280;3468;42.824;23.240;2023-05-21T10:38:33;69812.63;;;24.39;42.61
6859;BME280;3468;42.824;23.240;2023-05-21T10:41:00;69890.00;;;24.56;41.94
6859;BME280;3468;42.824;23.240;2023-05-21T10:43:44;69852.22;;;24.52;42.24
6859;BME280;3468;42.824;23.240;2023-05-21T10:46:47;69786.38;;;24.08;43.04
6859;BME280;3468;42.824;23.240;2023-05-21T10:49:40;69772.91;;;23.87;42.41
6859;BME280;3468;42.824;23.240;2023-05-21T10:52:21;69810.63;;;24.15;41.27
6859;BME280;3468;42.824;23.240;2023-05-21T10:55:06;69822.06;;;24.07;41.37
6859;BME280;3468;42.824;23.240;2023-05-21T11:00:30;69809.22;;;24.45;40.17
6859;BME280;3468;42.824;23.240;2023-05-21T11:02:59;69865.69;;;24.73;41.55
6859;BME280;3468;42.824;23.240;2023-05-21T11:05:37;69938.47;;;25.15;40.88
6859;BME280;3468;42.824;23.240;2023-05-21T11:08:18;69890.94;;;24.92;43.22
6859;BME280;3468;42.824;23.240;2023-05-21T11:10:50;69926.56;;;25.07;39.48
6859;BME280;3468;42.824;23.240;2023-05-21T11:13:18;69871.91;;;24.89;40.69
6859;BME280;3468;42.824;23.240;2023-05-21T11:16:05;69803.97;;;24.36;40.52
6859;BME280;3468;42.824;23.240;2023-05-21T11:19:01;69864.63;;;24.56;43.12
6859;BME280;3468;42.824;23.240;2023-05-21T11:21:29;69814.72;;;24.23;40.49
6859;BME280;3468;42.824;23.240;2023-05-21T11:24:01;69768.41;;;23.97;40.38
6859;BME280;3468;42.824;23.240;2023-05-21T11:26:31;69792.22;;;24.17;41.58
6859;BME280;3468;42.824;23.240;2023-05-21T11:29:17;69807.09;;;24.32;42.06
6859;BME280;3468;42.824;23.240;2023-05-21T11:31:45;69823.00;;;24.39;39.38
6859;BME280;3468;42.824;23.240;2023-05-21T11:34:13;69843.81;;;24.48;39.65
6859;BME280;3468;42.824;23.240;2023-05-21T11:36:43;69881.25;;;24.73;39.31
6859;BME280;3468;42.824;23.240;2023-05-21T11:39:12;69823.16;;;24.56;41.14
6859;BME280;3468;42.824;23.240;2023-05-21T11:41:52;69832.78;;;24.67;41.23
6859;BME280;3468;42.824;23.240;2023-05-21T11:44:37;69869.53;;;24.83;39.98
6859;BME280;3468;42.824;23.240;2023-05-21T11:47:05;69929.56;;;25.18;40.84
6859;BME280;3468;42.824;23.240;2023-05-21T11:49:33;69925.84;;;25.22;39.86
6859;BME280;3468;42.824;23.240;2023-05-21T11:52:01;69897.72;;;24.80;41.25
6859;BME280;3468;42.824;23.240;2023-05-21T11:54:29;69886.56;;;24.86;42.26
6859;BME280;3468;42.824;23.240;2023-05-21T11:56:58;69905.53;;;25.09;40.86
6859;BME280;3468;42.824;23.240;2023-05-21T11:59:26;69917.34;;;25.36;40.94
6859;BME280;3468;42.824;23.240;2023-05-21T12:01:53;69868.91;;;25.39;42.04
6859;BME280;3468;42.824;23.240;2023-05-21T12:04:20;69931.03;;;25.22;41.58
6859;BME280;3468;42.824;23.240;2023-05-21T12:06:48;69864.75;;;24.65;42.42
6859;BME280;3468;42.824;23.240;2023-05-21T12:09:16;69803.72;;;24.13;43.78
6859;BME280;3468;42.824;23.240;2023-05-21T12:11:43;69706.47;;;23.62;42.50
6859;BME280;3468;42.824;23.240;2023-05-21T12:14:10;69725.28;;;22.79;45.14
6859;BME280;3468;42.824;23.240;2023-05-21T12:16:38;69648.63;;;23.01;44.35
6859;BME280;3468;42.824;23.240;2023-05-21T12:19:07;69655.66;;;23.16;45.50
6859;BME280;3468;42.824;23.240;2023-05-21T12:21:34;69770.06;;;23.89;45.22
6859;BME280;3468;42.824;23.240;2023-05-21T12:24:07;69963.28;;;24.21;44.81
6859;BME280;3468;42.824;23.240;2023-05-21T12:26:34;69896.97;;;25.15;42.19
6859;BME280;3468;42.824;23.240;2023-05-21T12:29:03;69858.66;;;24.91;41.93
6859;BME280;3468;42.824;23.240;2023-05-21T12:31:31;69805.22;;;24.46;42.68
6859;BME280;3468;42.824;23.240;2023-05-21T12:33:58;69736.00;;;23.78;44.95
6859;BME280;3468;42.824;23.240;2023-05-21T12:36:27;69623.81;;;22.69;46.25
6859;BME280;3468;42.824;23.240;2023-05-21T12:38:56;69594.06;;;22.55;47.29
6859;BME280;3468;42.824;23.240;2023-05-21T12:41:28;69576.56;;;22.11;49.93
6859;BME280;3468;42.824;23.240;2023-05-21T12:43:55;69508.59;;;21.89;50.89
6859;BME280;3468;42.824;23.240;2023-05-21T12:46:23;69529.66;;;21.76;51.47
6859;BME280;3468;42.824;23.240;2023-05-21T12:48:52;69496.81;;;21.61;50.80
6859;BME280;3468;42.824;23.240;2023-05-21T12:51:20;69497.19;;;21.48;53.12
6859;BME280;3468;42.824;23.240;2023-05-21T12:53:49;69495.25;;;21.53;51.57
6859;BME280;3468;42.824;23.240;2023-05-21T12:56:16;69407.75;;;21.22;51.04
6859;BME280;3468;42.824;23.240;2023-05-21T12:58:49;69484.16;;;21.59;51.32
6859;BME280;3468;42.824;23.240;2023-05-21T13:01:16;69750.06;;;21.53;50.26
6859;BME280;3468;42.824;23.240;2023-05-21T13:03:42;69565.63;;;22.06;50.73
6859;BME280;3468;42.824;23.240;2023-05-21T13:06:12;69656.38;;;23.01;51.51
6859;BME280;3468;42.824;23.240;2023-05-21T13:08:39;69705.97;;;23.66;47.82
6859;BME280;3468;42.824;23.240;2023-05-21T13:11:06;69812.94;;;24.17;48.66
6859;BME280;3468;42.824;23.240;2023-05-21T13:13:34;69870.94;;;24.82;47.40
6859;BME280;3468;42.824;23.240;2023-05-21T13:16:03;69886.28;;;24.88;46.36
6859;BME280;3468;42.824;23.240;2023-05-21T13:18:33;69767.09;;;23.82;46.61
6859;BME280;3468;42.824;23.240;2023-05-21T13:21:00;69663.41;;;23.16;47.23
6859;BME280;3468;42.824;23.240;2023-05-21T13:23:27;69624.16;;;22.52;48.03
6859;BME280;3468;42.824;23.240;2023-05-21T13:25:57;69630.28;;;21.76;49.87
6859;BME280;3468;42.824;23.240;2023-05-21T13:28:24;69494.69;;;21.53;51.66
6859;BME280;3468;42.824;23.240;2023-05-21T13:30:53;69432.88;;;21.37;52.65
6859;BME280;3468;42.824;23.240;2023-05-21T13:33:21;69472.78;;;21.23;52.24